Time;durP1;ratioP1;P1;durP2;ratioP2;P2;SDS_P1;SDS_P2;PMS_P1;PMS_P2;Temp;Humidity;BMP_temperature;BMP_pressure;BME280_temperature;BME280_humidity;BME280_pressure;Samples;Min_cycle;Max_cycle;Signal;HPM_P1;HPM_P2
2022/03/24 00:00:49;;;;;;;14.50;10.27;;;;;;;;;;4940056;28;20571;-53
2022/03/24 00:03:15;;;;;;;17.63;10.13;;;;;;;;;;4939891;28;20438;-52
2022/03/24 00:05:41;;;;;;;15.27;10.57;;;;;;;;;;4943828;28;20499;-53
2022/03/24 00:08:08;;;;;;;19.47;11.43;;;;;;;;;;4938858;28;20452;-54
2022/03/24 00:10:48;;;;;;;19.20;10.20;;;;;;;;;;4942285;28;21104;-54
2022/03/24 00:13:15;;;;;;;19.67;11.17;;;;;;;;;;4940095;28;20453;-54
2022/03/24 00:15:41;;;;;;;19.67;10.80;;;;;;;;;;4945892;28;20975;-53
2022/03/24 00:18:07;;;;;;;20.20;10.90;;;;;;;;;;4947303;28;20727;-53
2022/03/24 00:20:37;;;;;;;17.17;10.57;;;;;;;;;;4948338;28;20455;-53
2022/03/24 00:23:03;;;;;;;18.10;11.07;;;;;;;;;;4944679;28;21039;-54
2022/03/24 00:25:29;;;;;;;22.23;10.90;;;;;;;;;;4945563;28;20522;-52
2022/03/24 00:27:55;;;;;;;16.70;11.77;;;;;;;;;;4944031;28;20455;-52
2022/03/24 00:33:39;;;;;;;17.00;10.40;;;;;;;;;;4878016;29;20441;-51
2022/03/24 00:36:06;;;;;;;22.73;11.73;;;;;;;;;;4916359;28;21209;-54
2022/03/24 00:38:32;;;;;;;20.40;11.07;;;;;;;;;;4923833;28;22792;-51
2022/03/24 00:41:00;;;;;;;16.70;10.10;;;;;;;;;;4924144;28;20582;-52
2022/03/24 00:43:26;;;;;;;14.03;10.13;;;;;;;;;;4928433;28;20495;-53
2022/03/24 00:45:52;;;;;;;14.77;9.47;;;;;;;;;;4923860;28;20478;-53
2022/03/24 00:48:19;;;;;;;28.47;11.60;;;;;;;;;;4926898;28;20451;-53
2022/03/24 00:50:46;;;;;;;16.00;9.57;;;;;;;;;;4958373;28;20431;-53
2022/03/24 00:53:15;;;;;;;19.10;11.07;;;;;;;;;;4928961;28;20454;-52
2022/03/24 00:55:41;;;;;;;15.80;10.40;;;;;;;;;;4926110;28;20497;-54
2022/03/24 00:58:07;;;;;;;16.60;11.73;;;;;;;;;;4925904;28;20444;-53
2022/03/24 01:00:36;;;;;;;17.93;10.83;;;;;;;;;;4926232;28;20471;-53
2022/03/24 01:03:10;;;;;;;16.37;10.50;;;;;;;;;;4925397;28;20569;-53
2022/03/24 01:05:37;;;;;;;18.13;11.60;;;;;;;;;;4924784;28;20440;-55
2022/03/24 01:08:05;;;;;;;15.83;10.90;;;;;;;;;;4924018;28;20526;-53
2022/03/24 01:10:31;;;;;;;15.80;11.03;;;;;;;;;;4936637;28;20439;-52
2022/03/24 01:13:01;;;;;;;17.57;11.20;;;;;;;;;;4924091;28;20498;-52
2022/03/24 01:15:27;;;;;;;18.77;11.17;;;;;;;;;;4929877;28;20546;-54
2022/03/24 01:17:58;;;;;;;16.37;11.50;;;;;;;;;;4944520;28;20430;-52
2022/03/24 01:20:24;;;;;;;21.13;11.53;;;;;;;;;;4943346;28;20471;-53
2022/03/24 01:22:51;;;;;;;18.57;11.73;;;;;;;;;;4944083;28;20452;-53
2022/03/24 01:25:18;;;;;;;18.77;10.80;;;;;;;;;;4948645;28;20514;-53
2022/03/24 01:27:46;;;;;;;16.07;10.70;;;;;;;;;;4949188;28;20415;-53
2022/03/24 01:30:25;;;;;;;16.70;10.63;;;;;;;;;;4931847;29;20519;-53
2022/03/24 01:32:52;;;;;;;18.60;11.50;;;;;;;;;;4947113;28;20443;-53
2022/03/24 01:35:23;;;;;;;21.67;12.10;;;;;;;;;;4949115;28;20498;-52
2022/03/24 01:37:49;;;;;;;18.40;10.70;;;;;;;;;;4949068;28;20927;-57
2022/03/24 01:40:16;;;;;;;22.20;12.87;;;;;;;;;;4945920;28;20458;-53
2022/03/24 01:42:43;;;;;;;15.60;10.20;;;;;;;;;;4947390;28;20455;-52
2022/03/24 01:45:10;;;;;;;20.23;11.83;;;;;;;;;;4976039;28;20948;-53
2022/03/24 01:47:37;;;;;;;16.60;10.50;;;;;;;;;;4949272;28;20443;-54
2022/03/24 01:50:04;;;;;;;18.97;11.43;;;;;;;;;;4933756;29;20479;-54
2022/03/24 01:52:31;;;;;;;16.23;10.90;;;;;;;;;;4958611;28;20459;-54
2022/03/24 01:54:58;;;;;;;21.10;12.10;;;;;;;;;;4949488;28;20947;-53
2022/03/24 01:57:24;;;;;;;26.30;12.20;;;;;;;;;;4948540;28;20476;-54
2022/03/24 01:59:52;;;;;;;21.50;11.40;;;;;;;;;;4946003;28;20726;-53
2022/03/24 02:02:18;;;;;;;20.57;13.57;;;;;;;;;;4945821;28;20455;-53
2022/03/24 02:04:45;;;;;;;29.70;12.47;;;;;;;;;;4944767;28;21071;-56
2022/03/24 02:07:11;;;;;;;18.70;12.07;;;;;;;;;;4946252;28;20455;-52
2022/03/24 02:09:37;;;;;;;22.33;13.07;;;;;;;;;;4943877;28;20447;-54
2022/03/24 02:12:09;;;;;;;19.60;12.20;;;;;;;;;;4943638;28;20536;-53
2022/03/24 02:14:35;;;;;;;18.77;12.63;;;;;;;;;;4962458;28;20455;-54
2022/03/24 02:17:01;;;;;;;21.20;12.40;;;;;;;;;;4947865;28;20482;-53
2022/03/24 02:19:28;;;;;;;20.47;11.70;;;;;;;;;;4949769;28;21502;-53
2022/03/24 02:21:59;;;;;;;16.70;12.33;;;;;;;;;;4956593;28;20432;-53
2022/03/24 02:24:37;;;;;;;22.60;12.40;;;;;;;;;;4945579;28;20468;-53
2022/03/24 02:27:03;;;;;;;19.67;11.37;;;;;;;;;;4944498;28;20535;-53
2022/03/24 02:29:29;;;;;;;15.67;10.47;;;;;;;;;;4944933;28;20534;-54
2022/03/24 02:31:55;;;;;;;20.17;12.23;;;;;;;;;;4947591;28;20471;-54
2022/03/24 02:34:37;;;;;;;24.50;12.10;;;;;;;;;;4945472;28;20435;-52
2022/03/24 02:37:13;;;;;;;18.13;11.67;;;;;;;;;;4951182;28;20478;-52
2022/03/24 02:39:53;;;;;;;20.77;11.37;;;;;;;;;;4951188;28;20435;-53
2022/03/24 02:42:20;;;;;;;18.10;11.57;;;;;;;;;;4947143;28;20446;-53
2022/03/24 02:44:47;;;;;;;16.60;12.03;;;;;;;;;;4950284;28;20439;-51
2022/03/24 02:47:17;;;;;;;16.90;11.83;;;;;;;;;;4946095;28;20509;-53
2022/03/24 02:49:46;;;;;;;26.60;12.00;;;;;;;;;;4958653;28;20431;-53
2022/03/24 02:52:12;;;;;;;21.17;10.93;;;;;;;;;;4947449;28;20435;-53
2022/03/24 02:54:42;;;;;;;16.60;10.97;;;;;;;;;;4945517;28;20443;-53
2022/03/24 02:57:08;;;;;;;16.93;11.20;;;;;;;;;;4974593;28;20512;-54
2022/03/24 02:59:37;;;;;;;17.67;12.43;;;;;;;;;;4945868;28;20436;-54
2022/03/24 03:02:05;;;;;;;23.70;12.70;;;;;;;;;;4946200;28;20563;-54
2022/03/24 03:04:32;;;;;;;16.00;11.27;;;;;;;;;;4943210;28;20545;-54
2022/03/24 03:07:02;;;;;;;18.20;10.90;;;;;;;;;;4939679;28;20455;-54
2022/03/24 03:09:32;;;;;;;15.33;10.47;;;;;;;;;;4946379;28;20585;-56
2022/03/24 03:11:58;;;;;;;17.27;11.57;;;;;;;;;;4939312;28;20443;-54
2022/03/24 03:14:29;;;;;;;20.10;12.13;;;;;;;;;;4941618;28;20540;-54
2022/03/24 03:16:56;;;;;;;20.90;12.77;;;;;;;;;;4938858;28;20511;-53
2022/03/24 03:19:23;;;;;;;19.40;11.40;;;;;;;;;;4941581;28;20459;-52
2022/03/24 03:21:49;;;;;;;17.63;11.67;;;;;;;;;;4938910;28;21113;-51
2022/03/24 03:24:16;;;;;;;20.13;11.70;;;;;;;;;;4940550;28;20945;-53
2022/03/24 03:26:42;;;;;;;16.20;11.57;;;;;;;;;;4940414;28;20549;-52
2022/03/24 03:29:08;;;;;;;19.83;12.57;;;;;;;;;;4944408;28;20443;-53
2022/03/24 03:31:35;;;;;;;19.27;12.33;;;;;;;;;;4943023;28;20440;-54
2022/03/24 03:34:01;;;;;;;18.00;11.13;;;;;;;;;;4940966;28;20451;-53
2022/03/24 03:36:36;;;;;;;20.03;13.00;;;;;;;;;;4943209;28;20494;-53
2022/03/24 03:39:03;;;;;;;20.83;12.87;;;;;;;;;;4940579;28;20443;-53
2022/03/24 03:41:38;;;;;;;19.90;12.30;;;;;;;;;;4938901;28;20888;-53
2022/03/24 03:44:05;;;;;;;18.43;12.50;;;;;;;;;;4945319;28;20449;-53
2022/03/24 03:46:41;;;;;;;23.30;11.80;;;;;;;;;;4954150;28;20439;-55
2022/03/24 03:49:10;;;;;;;19.67;12.27;;;;;;;;;;4948666;28;20500;-53
2022/03/24 03:51:37;;;;;;;22.53;13.13;;;;;;;;;;4944182;28;20944;-52
2022/03/24 03:54:04;;;;;;;21.50;11.93;;;;;;;;;;4941145;28;20943;-53
2022/03/24 03:56:30;;;;;;;15.93;11.37;;;;;;;;;;4941980;28;20489;-52
2022/03/24 03:58:56;;;;;;;16.10;12.27;;;;;;;;;;4945600;28;21029;-53
2022/03/24 04:01:22;;;;;;;17.70;13.00;;;;;;;;;;4939383;28;20490;-53
2022/03/24 04:03:48;;;;;;;20.40;13.80;;;;;;;;;;4944092;28;20553;-53
2022/03/24 04:06:14;;;;;;;21.53;12.87;;;;;;;;;;4935006;28;20439;-53
2022/03/24 04:08:42;;;;;;;17.23;11.40;;;;;;;;;;4941567;28;20440;-52
2022/03/24 04:11:15;;;;;;;20.47;12.20;;;;;;;;;;4937553;28;21031;-52
2022/03/24 04:13:42;;;;;;;20.87;13.30;;;;;;;;;;4942885;28;20455;-54
2022/03/24 04:16:13;;;;;;;23.47;12.77;;;;;;;;;;4940361;28;21296;-52
2022/03/24 04:18:44;;;;;;;21.83;12.50;;;;;;;;;;4947713;28;20528;-54
2022/03/24 04:21:10;;;;;;;15.87;10.03;;;;;;;;;;4942682;28;20427;-53
2022/03/24 04:23:37;;;;;;;21.60;13.30;;;;;;;;;;4942433;28;21034;-53
2022/03/24 04:26:03;;;;;;;22.80;12.93;;;;;;;;;;4942531;28;20437;-52
2022/03/24 04:28:30;;;;;;;19.80;13.47;;;;;;;;;;4940157;28;20450;-53
2022/03/24 04:30:56;;;;;;;18.60;12.03;;;;;;;;;;4940433;28;20447;-53
2022/03/24 04:33:23;;;;;;;17.47;11.17;;;;;;;;;;4931349;28;20474;-53
2022/03/24 04:35:52;;;;;;;19.83;12.37;;;;;;;;;;4942210;28;20451;-53
2022/03/24 04:38:21;;;;;;;18.20;11.07;;;;;;;;;;4942977;28;20451;-54
2022/03/24 04:40:47;;;;;;;14.30;9.93;;;;;;;;;;4941387;28;20526;-52
2022/03/24 04:43:14;;;;;;;22.83;12.33;;;;;;;;;;4941925;28;21019;-53
2022/03/24 04:45:41;;;;;;;21.30;12.00;;;;;;;;;;4938366;28;20432;-53
2022/03/24 04:48:08;;;;;;;18.53;10.07;;;;;;;;;;4943832;28;20925;-54
2022/03/24 04:50:34;;;;;;;18.93;11.27;;;;;;;;;;4942872;28;20499;-53
2022/03/24 04:53:02;;;;;;;15.67;10.90;;;;;;;;;;4938673;28;20451;-54
2022/03/24 04:55:29;;;;;;;21.20;11.97;;;;;;;;;;4940005;28;20447;-53
2022/03/24 04:57:55;;;;;;;20.33;11.90;;;;;;;;;;4945947;28;20483;-53
2022/03/24 05:00:22;;;;;;;18.73;11.07;;;;;;;;;;4936140;28;20891;-53
2022/03/24 05:02:48;;;;;;;19.20;10.60;;;;;;;;;;4938236;28;20447;-52
2022/03/24 05:05:15;;;;;;;21.75;12.35;;;;;;;;;;4938372;28;20783;-54
2022/03/24 05:07:41;;;;;;;22.93;12.67;;;;;;;;;;4945633;28;20184;-55
2022/03/24 05:10:07;;;;;;;18.93;12.20;;;;;;;;;;4942244;28;20438;-55
2022/03/24 05:12:33;;;;;;;18.17;10.63;;;;;;;;;;4937530;28;20443;-54
2022/03/24 05:14:59;;;;;;;21.20;11.30;;;;;;;;;;4921007;28;20443;-53
2022/03/24 05:17:26;;;;;;;17.77;11.90;;;;;;;;;;4943996;28;20845;-55
2022/03/24 05:19:52;;;;;;;17.10;11.00;;;;;;;;;;4945083;28;20778;-53
2022/03/24 05:22:19;;;;;;;14.63;9.50;;;;;;;;;;4947790;28;20860;-54
2022/03/24 05:24:45;;;;;;;18.60;10.40;;;;;;;;;;4937211;28;20448;-55
2022/03/24 05:27:11;;;;;;;20.90;12.20;;;;;;;;;;4942707;28;20518;-53
2022/03/24 05:29:38;;;;;;;18.17;11.90;;;;;;;;;;4939338;28;20454;-54
2022/03/24 05:32:06;;;;;;;20.40;13.80;;;;;;;;;;4930207;28;20482;-54
2022/03/24 05:34:33;;;;;;;21.17;13.60;;;;;;;;;;4932862;28;20443;-53
2022/03/24 05:36:59;;;;;;;25.83;12.27;;;;;;;;;;4935047;28;21448;-53
2022/03/24 05:39:25;;;;;;;20.90;13.27;;;;;;;;;;4943475;28;20498;-53
2022/03/24 05:41:51;;;;;;;18.10;11.33;;;;;;;;;;4943090;28;20439;-56
2022/03/24 05:44:17;;;;;;;24.03;14.23;;;;;;;;;;4934062;28;20455;-55
2022/03/24 05:46:45;;;;;;;20.47;13.07;;;;;;;;;;4935957;28;20455;-55
2022/03/24 05:49:19;;;;;;;18.27;10.33;;;;;;;;;;4941482;28;20780;-54
2022/03/24 05:51:45;;;;;;;21.53;13.50;;;;;;;;;;4939385;28;20904;-53
2022/03/24 05:54:12;;;;;;;17.57;10.80;;;;;;;;;;4942414;28;20435;-53
2022/03/24 05:56:46;;;;;;;20.27;12.50;;;;;;;;;;4936246;28;20486;-55
2022/03/24 05:59:13;;;;;;;25.77;12.53;;;;;;;;;;4936687;28;20438;-53
2022/03/24 06:01:40;;;;;;;19.60;12.40;;;;;;;;;;4940372;28;20459;-53
2022/03/24 06:04:06;;;;;;;21.23;12.07;;;;;;;;;;4937741;28;20963;-53
2022/03/24 06:06:34;;;;;;;17.70;11.33;;;;;;;;;;4937486;28;20444;-54
2022/03/24 06:09:07;;;;;;;21.53;11.97;;;;;;;;;;4951295;28;20443;-55
2022/03/24 06:11:43;;;;;;;23.67;12.53;;;;;;;;;;4933001;28;20493;-53
2022/03/24 06:14:13;;;;;;;17.00;11.80;;;;;;;;;;4935790;28;20458;-53
2022/03/24 06:16:43;;;;;;;20.10;11.53;;;;;;;;;;4929028;28;21013;-54
2022/03/24 06:19:09;;;;;;;20.80;12.90;;;;;;;;;;4944541;28;20466;-54
2022/03/24 06:21:36;;;;;;;18.87;12.50;;;;;;;;;;4944278;28;20557;-53
2022/03/24 06:24:03;;;;;;;22.30;11.90;;;;;;;;;;4939727;28;20770;-54
2022/03/24 06:26:29;;;;;;;19.30;12.90;;;;;;;;;;4938360;28;20427;-53
2022/03/24 06:29:01;;;;;;;26.13;14.20;;;;;;;;;;4937767;28;21519;-55
2022/03/24 06:31:33;;;;;;;18.90;12.20;;;;;;;;;;4924612;28;20467;-58
2022/03/24 06:34:03;;;;;;;27.30;13.60;;;;;;;;;;4938005;28;20453;-54
2022/03/24 06:36:31;;;;;;;22.10;11.50;;;;;;;;;;4937449;28;20524;-54
2022/03/24 06:38:57;;;;;;;19.00;11.37;;;;;;;;;;4938639;28;20613;-52
2022/03/24 06:41:26;;;;;;;19.13;10.13;;;;;;;;;;4927452;28;21366;-54
2022/03/24 06:44:16;;;;;;;20.70;11.50;;;;;;;;;;4944754;28;20458;-53
2022/03/24 06:46:48;;;;;;;18.53;13.20;;;;;;;;;;4936936;28;20450;-54
2022/03/24 06:49:15;;;;;;;20.07;12.80;;;;;;;;;;4941441;28;20446;-53
2022/03/24 06:51:41;;;;;;;22.97;13.57;;;;;;;;;;4935514;28;20513;-53
2022/03/24 06:54:07;;;;;;;18.50;13.20;;;;;;;;;;4936831;29;20447;-52
2022/03/24 06:56:33;;;;;;;18.90;13.43;;;;;;;;;;4939759;28;20500;-54
2022/03/24 06:59:13;;;;;;;25.43;12.67;;;;;;;;;;4943485;28;20994;-54
2022/03/24 07:01:45;;;;;;;23.30;13.87;;;;;;;;;;4939184;28;20451;-55
2022/03/24 07:04:11;;;;;;;19.73;12.67;;;;;;;;;;4940754;28;20514;-54
2022/03/24 07:06:38;;;;;;;21.90;13.37;;;;;;;;;;4938243;28;20526;-52
2022/03/24 07:09:04;;;;;;;21.43;12.13;;;;;;;;;;4928306;28;20436;-52
2022/03/24 07:11:32;;;;;;;19.10;12.10;;;;;;;;;;4933573;28;20868;-54
2022/03/24 07:13:59;;;;;;;23.27;12.20;;;;;;;;;;4925450;29;20506;-54
2022/03/24 07:16:29;;;;;;;28.50;12.20;;;;;;;;;;4932500;28;20486;-57
2022/03/24 07:18:59;;;;;;;31.73;13.37;;;;;;;;;;4937225;28;20483;-53
2022/03/24 07:21:25;;;;;;;25.63;13.30;;;;;;;;;;4936684;28;20439;-53
2022/03/24 07:23:51;;;;;;;19.40;13.50;;;;;;;;;;4933823;28;20450;-53
2022/03/24 07:26:21;;;;;;;22.13;12.53;;;;;;;;;;4928496;28;20455;-54
2022/03/24 07:28:50;;;;;;;24.53;13.30;;;;;;;;;;4925568;29;20172;-53
2022/03/24 07:31:19;;;;;;;20.37;13.40;;;;;;;;;;4938411;28;20439;-55
2022/03/24 07:33:46;;;;;;;20.93;13.47;;;;;;;;;;4938389;29;20956;-53
2022/03/24 07:36:13;;;;;;;21.63;13.27;;;;;;;;;;4940145;28;20491;-53
2022/03/24 07:38:42;;;;;;;21.73;14.13;;;;;;;;;;4935356;28;20450;-55
2022/03/24 07:41:21;;;;;;;20.70;13.47;;;;;;;;;;4934609;28;20436;-56
2022/03/24 07:43:47;;;;;;;24.07;14.97;;;;;;;;;;4940235;28;20449;-54
2022/03/24 07:46:13;;;;;;;20.50;14.50;;;;;;;;;;4936291;28;20968;-55
2022/03/24 07:48:43;;;;;;;27.13;13.97;;;;;;;;;;4939172;28;20451;-55
2022/03/24 07:51:10;;;;;;;22.90;16.07;;;;;;;;;;4937769;28;20450;-53
2022/03/24 07:53:48;;;;;;;23.40;14.73;;;;;;;;;;4932152;28;20444;-55
2022/03/24 07:56:14;;;;;;;23.27;14.17;;;;;;;;;;4938237;28;20510;-54
2022/03/24 07:58:40;;;;;;;18.03;13.50;;;;;;;;;;4935686;28;20450;-53
2022/03/24 08:01:07;;;;;;;25.23;13.83;;;;;;;;;;4932679;28;20461;-54
2022/03/24 08:03:34;;;;;;;24.83;15.73;;;;;;;;;;4937037;28;21121;-54
2022/03/24 08:06:02;;;;;;;20.70;14.40;;;;;;;;;;4937948;28;20501;-54
2022/03/24 08:08:28;;;;;;;25.90;13.90;;;;;;;;;;4938216;28;20443;-54
2022/03/24 08:10:54;;;;;;;18.97;13.53;;;;;;;;;;4931895;28;20427;-54
2022/03/24 08:13:20;;;;;;;17.47;13.70;;;;;;;;;;4935017;28;20435;-54
2022/03/24 08:15:46;;;;;;;22.67;15.43;;;;;;;;;;4936891;28;20518;-53
2022/03/24 08:18:12;;;;;;;23.53;15.00;;;;;;;;;;4932804;28;20574;-54
2022/03/24 08:20:38;;;;;;;26.23;16.33;;;;;;;;;;4932761;28;20438;-53
2022/03/24 08:23:05;;;;;;;22.33;13.40;;;;;;;;;;4937595;28;20530;-53
2022/03/24 08:25:31;;;;;;;25.47;16.20;;;;;;;;;;4936083;28;20514;-53
2022/03/24 08:27:57;;;;;;;22.20;15.27;;;;;;;;;;4939083;28;20485;-55
2022/03/24 08:30:24;;;;;;;29.70;15.60;;;;;;;;;;4936639;28;21699;-55
2022/03/24 08:32:50;;;;;;;24.63;16.00;;;;;;;;;;4926660;28;20486;-54
2022/03/24 08:35:16;;;;;;;25.10;15.73;;;;;;;;;;4943795;28;20447;-53
2022/03/24 08:37:42;;;;;;;22.87;14.93;;;;;;;;;;4941813;28;20488;-54
2022/03/24 08:40:10;;;;;;;21.63;15.50;;;;;;;;;;4945014;28;20490;-54
2022/03/24 08:42:37;;;;;;;22.13;16.47;;;;;;;;;;4942156;28;20431;-53
2022/03/24 08:45:03;;;;;;;18.80;14.50;;;;;;;;;;4938436;28;20438;-53
2022/03/24 08:47:30;;;;;;;22.97;15.20;;;;;;;;;;4940687;28;20439;-52
2022/03/24 08:49:56;;;;;;;23.77;15.87;;;;;;;;;;4942290;28;20443;-53
2022/03/24 08:52:22;;;;;;;26.27;16.07;;;;;;;;;;4939072;28;20443;-55
2022/03/24 08:54:49;;;;;;;28.10;16.83;;;;;;;;;;4938408;28;20439;-54
2022/03/24 08:57:15;;;;;;;24.33;15.70;;;;;;;;;;4938326;28;20478;-54
2022/03/24 08:59:41;;;;;;;20.70;15.20;;;;;;;;;;4965734;28;20526;-54
2022/03/24 09:02:08;;;;;;;29.13;18.30;;;;;;;;;;4933754;28;20993;-54
2022/03/24 09:04:34;;;;;;;26.53;18.20;;;;;;;;;;4939580;28;20833;-55
2022/03/24 09:07:01;;;;;;;22.27;14.43;;;;;;;;;;4939335;28;20443;-53
2022/03/24 09:09:27;;;;;;;28.43;17.00;;;;;;;;;;4941935;28;20448;-53
2022/03/24 09:11:53;;;;;;;23.93;16.03;;;;;;;;;;4937862;28;20482;-54
2022/03/24 09:14:21;;;;;;;24.57;17.03;;;;;;;;;;4940749;28;20463;-55
2022/03/24 09:16:47;;;;;;;22.07;15.30;;;;;;;;;;4936094;28;21503;-54
2022/03/24 09:19:14;;;;;;;30.40;16.60;;;;;;;;;;4943098;28;20489;-55
2022/03/24 09:21:40;;;;;;;25.00;15.87;;;;;;;;;;4941052;28;20519;-59
2022/03/24 09:24:06;;;;;;;23.90;16.43;;;;;;;;;;4943780;28;20443;-54
2022/03/24 09:26:32;;;;;;;30.43;16.70;;;;;;;;;;4942420;28;20458;-55
2022/03/24 09:29:01;;;;;;;27.07;15.47;;;;;;;;;;4940343;28;20670;-55
2022/03/24 09:31:27;;;;;;;21.80;15.73;;;;;;;;;;4937373;28;20451;-54
2022/03/24 09:33:53;;;;;;;25.33;17.40;;;;;;;;;;4940696;28;20838;-54
2022/03/24 09:36:19;;;;;;;25.57;16.63;;;;;;;;;;4941607;28;20470;-54
2022/03/24 09:38:45;;;;;;;23.53;16.30;;;;;;;;;;4937004;28;20465;-55
2022/03/24 09:41:11;;;;;;;20.40;15.53;;;;;;;;;;4937684;28;20435;-54
2022/03/24 09:43:38;;;;;;;22.50;16.90;;;;;;;;;;4938592;29;20455;-54
2022/03/24 09:46:04;;;;;;;34.43;15.77;;;;;;;;;;4933646;28;20450;-56
2022/03/24 09:48:30;;;;;;;24.37;17.07;;;;;;;;;;4937345;29;20858;-56
2022/03/24 09:50:56;;;;;;;25.07;16.03;;;;;;;;;;4921776;29;20475;-56
2022/03/24 09:53:23;;;;;;;21.60;15.33;;;;;;;;;;4936151;28;20480;-55
2022/03/24 09:55:49;;;;;;;19.60;15.50;;;;;;;;;;4932933;28;20447;-54
2022/03/24 09:58:15;;;;;;;20.73;15.37;;;;;;;;;;4938696;28;20439;-55
2022/03/24 10:00:41;;;;;;;24.50;16.47;;;;;;;;;;4936859;28;20978;-54
2022/03/24 10:03:15;;;;;;;23.13;15.93;;;;;;;;;;4939523;28;20470;-54
2022/03/24 10:05:54;;;;;;;25.67;17.07;;;;;;;;;;4939392;28;20521;-55
2022/03/24 10:08:20;;;;;;;20.93;15.80;;;;;;;;;;4931941;28;20454;-55
2022/03/24 10:10:46;;;;;;;21.63;15.20;;;;;;;;;;4934239;28;20978;-57
2022/03/24 10:13:12;;;;;;;18.53;14.83;;;;;;;;;;4938237;28;20447;-54
2022/03/24 10:15:39;;;;;;;21.70;15.23;;;;;;;;;;4934116;28;20432;-55
2022/03/24 10:18:05;;;;;;;21.23;15.30;;;;;;;;;;4937944;28;20557;-55
2022/03/24 10:20:33;;;;;;;23.13;15.00;;;;;;;;;;4936318;28;20444;-54
2022/03/24 10:23:03;;;;;;;22.43;15.33;;;;;;;;;;4935412;28;20977;-55
2022/03/24 10:25:33;;;;;;;24.47;13.63;;;;;;;;;;4933233;28;20458;-54
2022/03/24 10:28:02;;;;;;;21.00;15.90;;;;;;;;;;4938483;28;20462;-54
2022/03/24 10:30:28;;;;;;;21.13;16.00;;;;;;;;;;4934796;28;20724;-54
2022/03/24 10:32:55;;;;;;;27.30;16.03;;;;;;;;;;4937649;28;20518;-56
2022/03/24 10:35:21;;;;;;;25.07;15.67;;;;;;;;;;4937397;28;20810;-54
2022/03/24 10:37:51;;;;;;;24.37;14.77;;;;;;;;;;4937458;28;20919;-55
2022/03/24 10:40:21;;;;;;;16.80;13.67;;;;;;;;;;4919457;29;20439;-56
2022/03/24 10:42:48;;;;;;;27.27;17.60;;;;;;;;;;4935120;28;20498;-54
2022/03/24 10:45:20;;;;;;;19.80;14.97;;;;;;;;;;4935685;28;20682;-55
2022/03/24 10:48:02;;;;;;;21.60;14.67;;;;;;;;;;4936808;28;20463;-57
2022/03/24 10:50:53;;;;;;;19.80;14.57;;;;;;;;;;4937583;28;20538;-55
2022/03/24 10:53:22;;;;;;;20.80;15.83;;;;;;;;;;4935504;28;21045;-57
2022/03/24 10:55:51;;;;;;;23.93;15.37;;;;;;;;;;4937481;28;20597;-55
2022/03/24 10:58:20;;;;;;;22.63;14.33;;;;;;;;;;4939908;28;20758;-55
2022/03/24 11:00:48;;;;;;;21.73;15.03;;;;;;;;;;4939235;28;20526;-55
2022/03/24 11:03:15;;;;;;;20.57;13.70;;;;;;;;;;4956553;28;20447;-55
2022/03/24 11:05:41;;;;;;;16.33;11.93;;;;;;;;;;4941428;28;20439;-52
2022/03/24 11:08:10;;;;;;;15.60;11.70;;;;;;;;;;4938274;29;20447;-55
2022/03/24 11:10:46;;;;;;;19.33;12.37;;;;;;;;;;4939614;28;20481;-55
2022/03/24 11:13:14;;;;;;;18.03;12.90;;;;;;;;;;4939609;28;20450;-55
2022/03/24 11:15:52;;;;;;;15.13;11.40;;;;;;;;;;4938749;28;21058;-56
2022/03/24 11:18:25;;;;;;;19.60;13.43;;;;;;;;;;4941201;28;20455;-55
2022/03/24 11:20:55;;;;;;;17.00;13.00;;;;;;;;;;4927421;29;20478;-55
2022/03/24 11:23:29;;;;;;;14.97;12.57;;;;;;;;;;4941532;28;20455;-55
2022/03/24 11:26:05;;;;;;;16.57;11.63;;;;;;;;;;4941313;28;20556;-56
2022/03/24 11:28:33;;;;;;;18.10;11.77;;;;;;;;;;4928969;29;20458;-56
2022/03/24 11:31:03;;;;;;;16.60;13.73;;;;;;;;;;4925467;29;20488;-55
2022/03/24 11:33:29;;;;;;;18.23;14.67;;;;;;;;;;4942663;28;20439;-56
2022/03/24 11:35:55;;;;;;;16.47;14.73;;;;;;;;;;4944015;28;20502;-54
2022/03/24 11:38:22;;;;;;;17.13;13.27;;;;;;;;;;4940765;28;20451;-54
2022/03/24 11:40:48;;;;;;;16.67;13.23;;;;;;;;;;4937774;28;20936;-54
2022/03/24 11:43:19;;;;;;;18.60;12.83;;;;;;;;;;4939824;28;20454;-55
2022/03/24 11:45:54;;;;;;;17.70;13.20;;;;;;;;;;4924784;29;20451;-56
2022/03/24 11:48:38;;;;;;;17.87;15.50;;;;;;;;;;4941539;28;20454;-55
2022/03/24 11:51:23;;;;;;;19.50;15.10;;;;;;;;;;4935272;28;20470;-55
2022/03/24 11:54:05;;;;;;;18.47;14.73;;;;;;;;;;4934907;28;20470;-54
2022/03/24 11:56:31;;;;;;;20.80;17.37;;;;;;;;;;4938216;28;20490;-56
2022/03/24 11:58:59;;;;;;;19.63;15.80;;;;;;;;;;4935702;28;20539;-55
2022/03/24 12:01:29;;;;;;;18.00;14.90;;;;;;;;;;4935252;28;20506;-55
2022/03/24 12:04:10;;;;;;;16.57;13.60;;;;;;;;;;4927761;29;20466;-56
2022/03/24 12:06:46;;;;;;;19.67;15.07;;;;;;;;;;4942451;28;20466;-56
2022/03/24 12:09:13;;;;;;;24.23;15.03;;;;;;;;;;4943958;28;20435;-57
2022/03/24 12:11:50;;;;;;;27.97;18.90;;;;;;;;;;4940611;28;20455;-54
2022/03/24 12:14:25;;;;;;;18.73;15.13;;;;;;;;;;4944524;28;20951;-56
2022/03/24 12:16:53;;;;;;;20.00;15.30;;;;;;;;;;4945256;28;20481;-57
2022/03/24 12:19:40;;;;;;;23.53;17.83;;;;;;;;;;4944891;28;20442;-55
2022/03/24 12:22:25;;;;;;;25.53;17.17;;;;;;;;;;4944867;28;20435;-55
2022/03/24 12:25:08;;;;;;;20.50;16.47;;;;;;;;;;4939257;28;21194;-55
2022/03/24 12:27:34;;;;;;;22.90;19.63;;;;;;;;;;4939450;28;20518;-52
2022/03/24 12:30:10;;;;;;;20.87;16.30;;;;;;;;;;4934059;28;20585;-55
2022/03/24 12:32:36;;;;;;;23.00;17.10;;;;;;;;;;4943041;28;20774;-57
2022/03/24 12:35:03;;;;;;;21.63;17.50;;;;;;;;;;4940365;28;20462;-57
2022/03/24 12:37:35;;;;;;;19.23;17.00;;;;;;;;;;4940537;28;20482;-55
2022/03/24 12:40:14;;;;;;;18.23;15.10;;;;;;;;;;4937786;28;20551;-56
2022/03/24 12:42:43;;;;;;;21.43;15.90;;;;;;;;;;4939346;28;20467;-55
2022/03/24 12:45:10;;;;;;;22.17;16.43;;;;;;;;;;4936168;28;20454;-55
2022/03/24 12:47:42;;;;;;;19.97;15.30;;;;;;;;;;4942015;28;21019;-54
2022/03/24 12:50:09;;;;;;;21.30;16.93;;;;;;;;;;4941367;28;21244;-56
2022/03/24 12:52:54;;;;;;;18.23;15.37;;;;;;;;;;4941786;28;22408;-54
2022/03/24 12:55:27;;;;;;;22.27;15.47;;;;;;;;;;4935558;28;20459;-54
2022/03/24 12:58:03;;;;;;;19.17;16.40;;;;;;;;;;4941328;28;20537;-55
2022/03/24 13:00:33;;;;;;;18.30;16.30;;;;;;;;;;4939852;28;20431;-55
2022/03/24 13:02:59;;;;;;;19.47;16.27;;;;;;;;;;4939300;28;20557;-56
2022/03/24 13:05:26;;;;;;;16.30;14.60;;;;;;;;;;4939806;28;20440;-56
2022/03/24 13:07:52;;;;;;;18.77;14.50;;;;;;;;;;4942406;28;20858;-55
2022/03/24 13:10:24;;;;;;;18.40;16.30;;;;;;;;;;4934407;28;20787;-56
2022/03/24 13:12:58;;;;;;;17.40;15.57;;;;;;;;;;4940684;28;20443;-56
2022/03/24 13:15:37;;;;;;;18.23;14.90;;;;;;;;;;4935155;28;20549;-55
2022/03/24 13:18:03;;;;;;;21.00;15.50;;;;;;;;;;4934681;29;20487;-55
2022/03/24 13:20:35;;;;;;;20.33;15.80;;;;;;;;;;4938843;28;20462;-55
2022/03/24 13:23:03;;;;;;;17.13;15.33;;;;;;;;;;4926444;29;20439;-59
2022/03/24 13:25:29;;;;;;;17.47;14.20;;;;;;;;;;4944722;28;20542;-56
2022/03/24 13:27:55;;;;;;;18.30;14.30;;;;;;;;;;4942195;29;20463;-55
2022/03/24 13:30:31;;;;;;;16.30;14.20;;;;;;;;;;4936784;28;20489;-55
2022/03/24 13:33:02;;;;;;;21.50;15.43;;;;;;;;;;4938070;28;20972;-55
2022/03/24 13:35:29;;;;;;;18.23;15.80;;;;;;;;;;4939909;28;20439;-55
2022/03/24 13:37:56;;;;;;;14.93;13.40;;;;;;;;;;4924684;29;20486;-56
2022/03/24 13:40:47;;;;;;;16.37;14.30;;;;;;;;;;4938310;28;20443;-57
2022/03/24 13:43:13;;;;;;;15.20;13.63;;;;;;;;;;4943800;28;20474;-58
2022/03/24 13:45:44;;;;;;;16.27;13.53;;;;;;;;;;4941651;28;20439;-56
2022/03/24 13:48:15;;;;;;;17.10;14.10;;;;;;;;;;4940410;28;20534;-56
2022/03/24 13:50:41;;;;;;;16.97;14.13;;;;;;;;;;4939510;28;20462;-56
2022/03/24 13:53:14;;;;;;;17.77;13.50;;;;;;;;;;4943184;29;20474;-55
2022/03/24 13:55:40;;;;;;;14.73;12.63;;;;;;;;;;4936106;28;20447;-55
2022/03/24 13:58:10;;;;;;;16.23;13.77;;;;;;;;;;4942070;28;20491;-55
2022/03/24 14:00:44;;;;;;;14.97;13.10;;;;;;;;;;4938511;28;20446;-55
2022/03/24 14:03:12;;;;;;;16.50;13.00;;;;;;;;;;4938032;28;20469;-56
2022/03/24 14:05:48;;;;;;;17.87;12.93;;;;;;;;;;4941608;28;20590;-53
2022/03/24 14:08:16;;;;;;;14.80;12.70;;;;;;;;;;4939466;28;21098;-56
2022/03/24 14:10:53;;;;;;;18.57;13.37;;;;;;;;;;4941434;28;20542;-56
2022/03/24 14:13:20;;;;;;;18.50;13.40;;;;;;;;;;4937602;28;20779;-56
2022/03/24 14:15:47;;;;;;;18.13;13.93;;;;;;;;;;4934040;28;20789;-54
2022/03/24 14:18:21;;;;;;;15.63;11.60;;;;;;;;;;4931099;28;20479;-54
2022/03/24 14:21:00;;;;;;;16.83;13.33;;;;;;;;;;4943465;28;20447;-56
2022/03/24 14:23:30;;;;;;;13.70;11.43;;;;;;;;;;4940697;28;20538;-56
2022/03/24 14:26:01;;;;;;;17.53;12.73;;;;;;;;;;4937792;28;20513;-55
2022/03/24 14:28:36;;;;;;;15.70;12.00;;;;;;;;;;4964230;28;20475;-56